createdAt,value
2023-01-28T08:18:48.680Z,5.93
2023-01-28T08:33:02.845Z,4.17
2023-01-28T08:36:06.980Z,5.17
2023-01-28T08:39:10.110Z,5.30
2023-01-28T08:42:13.105Z,5.10
2023-01-28T08:45:16.423Z,5.17
2023-01-28T08:48:21.701Z,5.97
2023-01-28T08:51:24.907Z,5.53
2023-01-28T08:54:27.987Z,5.17
2023-01-28T08:57:31.214Z,5.50
2023-01-28T09:00:35.300Z,5.30
2023-01-28T09:03:39.801Z,5.27
2023-01-28T09:06:42.795Z,5.73
2023-01-28T09:09:46.154Z,5.17
2023-01-28T09:12:49.276Z,5.00
2023-01-28T09:15:52.844Z,5.00
2023-01-28T09:18:57.773Z,4.10
2023-01-28T09:22:01.301Z,4.47
2023-01-28T09:25:04.660Z,4.50
2023-01-28T09:28:07.854Z,4.30
2023-01-28T09:31:13.142Z,3.93
2023-01-28T09:34:17.902Z,4.33
2023-01-28T09:37:21.087Z,3.97
2023-01-28T09:40:32.753Z,4.17
2023-01-28T09:43:49.360Z,4.00
2023-01-28T09:46:52.569Z,4.40
2023-01-28T09:50:01.293Z,3.77
2023-01-28T09:53:08.571Z,4.00
2023-01-28T09:56:16.655Z,4.63
2023-01-28T09:59:21.905Z,4.50
2023-01-28T10:02:46.644Z,4.20
2023-01-28T10:06:00.153Z,4.37
2023-01-28T10:09:35.979Z,4.17
2023-01-28T10:12:48.302Z,4.10
2023-01-28T10:16:07.385Z,4.10
2023-01-28T10:19:17.281Z,3.87
2023-01-28T10:22:26.480Z,4.23
2023-01-28T10:25:32.257Z,3.37
2023-01-28T10:28:37.054Z,3.53
2023-01-28T10:31:45.611Z,4.47
2023-01-28T10:34:48.729Z,3.63
2023-01-28T10:38:10.758Z,3.73
2023-01-28T10:41:25.804Z,4.03
2023-01-28T10:44:36.518Z,3.47
2023-01-28T10:47:44.990Z,3.57
2023-01-28T10:50:56.946Z,4.90
2023-01-28T10:54:02.146Z,3.57
2023-01-28T10:57:12.356Z,3.87
2023-01-28T11:00:24.904Z,3.70
2023-01-28T11:03:30.391Z,3.47
2023-01-28T11:06:33.673Z,3.77
2023-01-28T11:09:40.481Z,3.63
2023-01-28T11:12:43.610Z,3.77
2023-01-28T11:15:50.844Z,3.73
2023-01-28T11:19:06.455Z,3.90
2023-01-28T11:22:24.169Z,3.90
2023-01-28T11:25:32.865Z,3.90
2023-01-28T11:28:43.922Z,3.43
2023-01-28T11:31:49.164Z,3.80
2023-01-28T11:34:54.977Z,4.17
2023-01-28T11:37:58.985Z,3.90
2023-01-28T11:41:03.488Z,3.57
2023-01-28T11:44:16.812Z,3.60
2023-01-28T11:47:44.371Z,3.70
2023-01-28T11:50:54.112Z,4.40
2023-01-28T11:54:23.643Z,3.60
2023-01-28T11:57:35.365Z,3.90
2023-01-28T12:00:44.354Z,3.93
2023-01-28T12:04:18.926Z,4.17
2023-01-28T12:07:36.630Z,4.00
2023-01-28T12:10:45.851Z,4.10
2023-01-28T12:14:02.390Z,4.50
2023-01-28T12:17:19.212Z,3.73
2023-01-28T12:20:31.349Z,4.33
2023-01-28T12:23:54.260Z,3.90
2023-01-28T12:27:07.449Z,3.60
2023-01-28T12:30:26.313Z,3.73
2023-01-28T12:33:57.595Z,3.80
2023-01-28T12:37:11.721Z,3.73
2023-01-28T12:40:42.181Z,4.17
2023-01-28T12:43:55.179Z,4.20
2023-01-28T12:47:04.384Z,4.40
2023-01-28T12:50:16.656Z,4.57
2023-01-28T12:53:26.221Z,4.47
2023-01-28T12:56:34.859Z,3.80
2023-01-28T12:59:45.380Z,4.60
2023-01-28T13:02:57.839Z,3.83
2023-01-28T13:06:05.756Z,3.73
2023-01-28T13:09:17.987Z,4.20
2023-01-28T13:12:22.359Z,4.40
2023-01-28T13:15:26.081Z,3.83
2023-01-28T13:18:43.542Z,4.10
2023-01-28T13:21:49.968Z,3.77
2023-01-28T13:24:54.272Z,4.10
2023-01-28T13:28:00.109Z,4.03
2023-01-28T13:31:05.902Z,4.50
2023-01-28T13:34:29.708Z,4.57
2023-01-28T13:37:35.852Z,3.97
2023-01-28T13:40:42.063Z,3.90
2023-01-28T13:43:45.017Z,3.83
2023-01-28T13:46:48.058Z,3.80
2023-01-28T13:49:57.649Z,3.70
2023-01-28T13:53:05.006Z,4.17
2023-01-28T13:56:21.257Z,4.40
2023-01-28T13:59:44.148Z,3.50
2023-01-28T14:03:20.840Z,4.30
2023-01-28T14:06:53.378Z,4.30
2023-01-28T14:10:25.210Z,4.10
2023-01-28T14:13:54.061Z,3.90
2023-01-28T14:16:59.722Z,3.67
2023-01-28T14:20:04.977Z,3.50
2023-01-28T14:23:17.799Z,3.77
2023-01-28T14:26:42.733Z,4.07
2023-01-28T14:29:59.489Z,3.80
2023-01-28T14:33:03.545Z,3.73
2023-01-28T14:36:07.350Z,3.80
2023-01-28T14:39:18.650Z,4.17
2023-01-28T14:42:24.458Z,4.20
2023-01-28T14:45:46.375Z,4.00
2023-01-28T14:48:58.503Z,3.80
2023-01-28T14:52:16.064Z,3.90
2023-01-28T14:55:33.450Z,4.30
2023-01-28T14:58:40.384Z,4.53
2023-01-28T15:01:47.490Z,3.90
2023-01-28T15:04:51.385Z,4.20
2023-01-28T15:07:55.789Z,3.90
2023-01-28T15:11:02.692Z,3.60
2023-01-28T15:14:06.606Z,4.23
2023-01-28T15:17:23.324Z,3.70
2023-01-28T15:20:26.573Z,3.80
2023-01-28T15:23:34.400Z,4.17
2023-01-28T15:26:38.935Z,4.20
2023-01-28T15:29:41.948Z,4.53
2023-01-28T15:32:45.177Z,3.80
2023-01-28T15:35:48.530Z,4.50
2023-01-28T15:38:51.763Z,4.07
2023-01-28T15:41:58.975Z,3.53
2023-01-28T15:45:02.129Z,4.27
2023-01-28T15:48:10.181Z,4.30
2023-01-28T15:51:21.107Z,3.43
2023-01-28T15:54:24.872Z,4.03
2023-01-28T15:57:32.169Z,4.53
2023-01-28T16:00:35.236Z,4.33
2023-01-28T16:03:40.464Z,3.70
2023-01-28T16:06:43.529Z,3.80
2023-01-28T16:09:53.199Z,4.50
2023-01-28T16:13:04.937Z,4.23
2023-01-28T16:16:09.193Z,4.37
2023-01-28T16:19:26.759Z,4.80
2023-01-28T16:22:35.198Z,4.67
2023-01-28T16:25:38.273Z,5.00
2023-01-28T16:28:42.777Z,4.03
2023-01-28T16:31:45.791Z,4.23
2023-01-28T16:34:48.760Z,4.70
2023-01-28T16:37:52.423Z,4.17
2023-01-28T16:40:55.723Z,4.50
2023-01-28T16:44:03.156Z,4.20
2023-01-28T16:47:06.938Z,4.47
2023-01-28T16:50:12.244Z,4.10
2023-01-28T16:53:21.897Z,5.03
2023-01-28T16:56:45.715Z,4.40
2023-01-28T16:59:51.025Z,4.23
2023-01-28T17:02:55.377Z,4.67
2023-01-28T17:05:58.718Z,4.00
2023-01-28T17:09:01.706Z,4.73
2023-01-28T17:12:05.308Z,4.00
2023-01-28T17:15:11.888Z,3.90
2023-01-28T17:18:15.265Z,4.07
2023-01-28T17:21:18.482Z,3.70
2023-01-28T17:24:21.564Z,4.70
2023-01-28T17:27:24.954Z,4.30
2023-01-28T17:30:30.177Z,4.67
2023-01-28T17:33:33.251Z,4.73
2023-01-28T17:36:36.416Z,4.50
2023-01-28T17:39:39.673Z,4.80
2023-01-28T17:42:42.716Z,4.20
2023-01-28T17:45:47.167Z,4.40
2023-01-28T17:48:50.798Z,4.83
2023-01-28T17:51:53.886Z,4.97
2023-01-28T17:54:56.979Z,4.67
2023-01-28T17:58:00.097Z,5.37
2023-01-28T18:01:11.094Z,4.50
2023-01-28T18:04:14.145Z,4.77
2023-01-28T18:07:17.098Z,4.60
2023-01-28T18:10:20.674Z,4.93
2023-01-28T18:13:23.732Z,5.07
2023-01-28T18:16:28.533Z,5.23
2023-01-28T18:19:31.523Z,5.00
2023-01-28T18:22:34.503Z,4.50
2023-01-28T18:25:37.471Z,5.43
2023-01-28T18:28:40.451Z,5.27
2023-01-28T18:31:45.070Z,5.13
2023-01-28T18:34:48.209Z,4.60
2023-01-28T18:37:51.168Z,5.03
2023-01-28T18:40:56.478Z,5.17
2023-01-28T18:43:59.405Z,5.43
2023-01-28T18:47:03.805Z,5.33
2023-01-28T18:50:07.821Z,5.00
2023-01-28T18:53:10.868Z,5.33
2023-01-28T18:56:13.826Z,5.13
2023-01-28T18:59:17.015Z,5.20
2023-01-28T19:02:21.579Z,5.00
2023-01-28T19:05:24.593Z,5.40
2023-01-28T19:08:27.752Z,5.90
2023-01-28T19:11:31.826Z,5.37
2023-01-28T19:14:35.047Z,5.10
2023-01-28T19:17:39.443Z,4.63
2023-01-28T19:20:42.853Z,5.20
2023-01-28T19:23:50.218Z,5.40
2023-01-28T19:26:53.555Z,4.97
2023-01-28T19:29:57.652Z,5.13
2023-01-28T19:33:02.381Z,5.30
2023-01-28T19:36:05.753Z,5.03
2023-01-28T19:39:10.207Z,5.00
2023-01-28T19:42:13.281Z,5.53
2023-01-28T19:45:17.191Z,5.67
2023-01-28T19:48:21.802Z,5.60
2023-01-28T19:51:25.625Z,5.20
2023-01-28T19:54:28.811Z,5.50
2023-01-28T19:57:32.057Z,4.87
2023-01-28T20:00:35.660Z,5.67
2023-01-28T20:03:40.504Z,5.77
2023-01-28T20:06:43.752Z,6.03
2023-01-28T20:09:47.319Z,5.63
2023-01-28T20:12:50.581Z,5.37
2023-01-28T20:15:53.827Z,5.67
2023-01-28T20:19:00.842Z,5.23
2023-01-28T20:22:04.811Z,5.23
2023-01-28T20:25:09.706Z,5.30
2023-01-28T20:28:12.959Z,5.40
2023-01-28T20:31:16.339Z,5.47
2023-01-28T20:34:22.132Z,6.23
2023-01-28T20:37:25.416Z,6.30
2023-01-28T20:40:31.513Z,5.63
2023-01-28T20:43:35.637Z,6.43
2023-01-28T20:46:44.005Z,6.57
2023-01-28T20:49:48.689Z,6.27
2023-01-28T20:52:51.919Z,6.23
2023-01-28T20:55:58.479Z,6.13
2023-01-28T20:59:02.881Z,6.73
2023-01-28T21:02:06.838Z,5.83
2023-01-28T21:05:12.164Z,6.20
2023-01-28T21:08:17.143Z,5.87
2023-01-28T21:11:21.017Z,5.67
2023-01-28T21:14:24.484Z,5.73
2023-01-28T21:17:27.703Z,6.27
2023-01-28T21:20:33.842Z,6.10
2023-01-28T21:23:37.235Z,6.33
2023-01-28T21:26:42.661Z,6.43
2023-01-28T21:29:46.455Z,6.03
2023-01-28T21:32:49.503Z,5.73
2023-01-28T21:35:53.946Z,6.10
2023-01-28T21:38:58.763Z,6.50
2023-01-28T21:42:02.074Z,6.40
2023-01-28T21:45:07.211Z,6.50
2023-01-28T21:48:10.406Z,5.70
2023-01-28T21:51:32.695Z,7.27
2023-01-28T21:54:35.943Z,6.97
2023-01-28T21:57:39.178Z,6.43
2023-01-28T22:00:41.370Z,6.97
2023-01-28T22:03:44.549Z,6.77
2023-01-28T22:06:49.699Z,6.77
2023-01-28T22:09:53.618Z,7.07
2023-01-28T22:12:56.958Z,6.57
2023-01-28T22:16:00.503Z,6.57
2023-01-28T22:19:03.892Z,6.47
2023-01-28T22:22:08.730Z,6.97
2023-01-28T22:25:12.198Z,6.67
2023-01-28T22:28:16.588Z,7.00
2023-01-28T22:31:19.851Z,6.43
2023-01-28T22:34:23.801Z,7.00
2023-01-28T22:37:28.538Z,7.03
2023-01-28T22:40:32.082Z,7.33
2023-01-28T22:43:35.475Z,7.87
2023-01-28T22:46:39.388Z,6.77
2023-01-28T22:49:43.128Z,7.63
2023-01-28T22:52:48.565Z,7.53
2023-01-28T22:55:53.146Z,8.17
2023-01-28T22:58:56.871Z,7.63
2023-01-28T23:02:00.192Z,7.80
2023-01-28T23:05:03.339Z,8.10
2023-01-28T23:08:20.056Z,7.80
2023-01-28T23:11:27.719Z,7.47
2023-01-28T23:14:54.123Z,7.90
2023-01-28T23:18:14.842Z,8.83
2023-01-28T23:21:37.315Z,8.13
2023-01-28T23:24:42.048Z,8.37
2023-01-28T23:27:45.787Z,8.73
2023-01-28T23:30:49.685Z,7.93
2023-01-28T23:33:53.117Z,9.37
2023-01-28T23:36:56.283Z,9.70
2023-01-28T23:40:01.569Z,9.13
2023-01-28T23:43:05.799Z,9.27
2023-01-28T23:46:09.189Z,9.33
2023-01-28T23:49:12.427Z,10.07
2023-01-28T23:52:15.716Z,9.53
2023-01-28T23:55:23.087Z,9.60
2023-01-28T23:58:42.215Z,10.67
